sensor_id;sensor_type;location;lat;lon;timestamp;P1;durP1;ratioP1;P2;durP2;ratioP2
27357;SDS011;14831;50.474;7.616;2023-03-01T00:00:35;1.4;;;1.3;;
27357;SDS011;14831;50.474;7.616;2023-03-01T00:05:35;1.4;;;1.3;;
27357;SDS011;14831;50.474;7.616;2023-03-01T00:10:35;1.4;;;1.3;;
27357;SDS011;14831;50.474;7.616;2023-03-01T00:15:38;1.4;;;1.3;;
27357;SDS011;14831;50.474;7.616;2023-03-01T00:20:35;1.4;;;1.3;;
27357;SDS011;14831;50.474;7.616;2023-03-01T00:28:18;1.4;;;1.3;;
27357;SDS011;14831;50.474;7.616;2023-03-01T00:30:35;1.5;;;1.4;;
27357;SDS011;14831;50.474;7.616;2023-03-01T00:35:35;1.5;;;1.4;;
27357;SDS011;14831;50.474;7.616;2023-03-01T00:40:36;1.5;;;1.4;;
27357;SDS011;14831;50.474;7.616;2023-03-01T00:45:35;1.5;;;1.4;;
27357;SDS011;14831;50.474;7.616;2023-03-01T00:50:35;1.5;;;1.4;;
27357;SDS011;14831;50.474;7.616;2023-03-01T00:55:36;1.5;;;1.4;;
27357;SDS011;14831;50.474;7.616;2023-03-01T01:00:35;1.6;;;1.4;;
27357;SDS011;14831;50.474;7.616;2023-03-01T01:05:35;1.6;;;1.4;;
27357;SDS011;14831;50.474;7.616;2023-03-01T01:10:35;1.6;;;1.4;;
27357;SDS011;14831;50.474;7.616;2023-03-01T01:15:35;1.6;;;1.4;;
27357;SDS011;14831;50.474;7.616;2023-03-01T01:20:35;1.6;;;1.4;;
27357;SDS011;14831;50.474;7.616;2023-03-01T01:25:35;1.6;;;1.4;;
27357;SDS011;14831;50.474;7.616;2023-03-01T01:30:35;1.7;;;1.6;;
27357;SDS011;14831;50.474;7.616;2023-03-01T01:35:35;1.7;;;1.6;;
27357;SDS011;14831;50.474;7.616;2023-03-01T01:40:43;1.7;;;1.6;;
27357;SDS011;14831;50.474;7.616;2023-03-01T01:45:36;1.7;;;1.6;;
27357;SDS011;14831;50.474;7.616;2023-03-01T01:50:36;1.7;;;1.6;;
27357;SDS011;14831;50.474;7.616;2023-03-01T01:55:37;1.7;;;1.6;;
27357;SDS011;14831;50.474;7.616;2023-03-01T02:00:37;1.8;;;1.7;;
27357;SDS011;14831;50.474;7.616;2023-03-01T02:05:39;1.8;;;1.7;;
27357;SDS011;14831;50.474;7.616;2023-03-01T02:10:35;1.8;;;1.7;;
27357;SDS011;14831;50.474;7.616;2023-03-01T02:15:37;1.8;;;1.7;;
27357;SDS011;14831;50.474;7.616;2023-03-01T02:20:44;1.8;;;1.7;;
27357;SDS011;14831;50.474;7.616;2023-03-01T02:25:40;1.8;;;1.7;;
27357;SDS011;14831;50.474;7.616;2023-03-01T02:30:35;1.8;;;1.6;;
27357;SDS011;14831;50.474;7.616;2023-03-01T02:35:38;1.8;;;1.6;;
27357;SDS011;14831;50.474;7.616;2023-03-01T02:40:37;1.8;;;1.6;;
27357;SDS011;14831;50.474;7.616;2023-03-01T02:45:35;1.8;;;1.6;;
27357;SDS011;14831;50.474;7.616;2023-03-01T02:52:46;1.8;;;1.6;;
27357;SDS011;14831;50.474;7.616;2023-03-01T02:55:35;1.8;;;1.6;;
27357;SDS011;14831;50.474;7.616;2023-03-01T03:00:37;1.8;;;1.6;;
27357;SDS011;14831;50.474;7.616;2023-03-01T03:05:35;1.8;;;1.6;;
27357;SDS011;14831;50.474;7.616;2023-03-01T03:10:37;1.8;;;1.6;;
27357;SDS011;14831;50.474;7.616;2023-03-01T03:15:35;1.8;;;1.6;;
27357;SDS011;14831;50.474;7.616;2023-03-01T03:20:36;1.8;;;1.6;;
27357;SDS011;14831;50.474;7.616;2023-03-01T03:25:35;1.8;;;1.6;;
27357;SDS011;14831;50.474;7.616;2023-03-01T03:30:38;1.7;;;1.6;;
27357;SDS011;14831;50.474;7.616;2023-03-01T03:35:40;1.7;;;1.6;;
27357;SDS011;14831;50.474;7.616;2023-03-01T03:40:37;1.7;;;1.6;;
27357;SDS011;14831;50.474;7.616;2023-03-01T03:45:36;1.7;;;1.6;;
27357;SDS011;14831;50.474;7.616;2023-03-01T03:50:36;1.7;;;1.6;;
27357;SDS011;14831;50.474;7.616;2023-03-01T03:55:36;1.7;;;1.6;;
27357;SDS011;14831;50.474;7.616;2023-03-01T04:00:37;1.8;;;1.7;;
27357;SDS011;14831;50.474;7.616;2023-03-01T04:05:37;1.8;;;1.7;;
27357;SDS011;14831;50.474;7.616;2023-03-01T04:10:37;1.8;;;1.7;;
27357;SDS011;14831;50.474;7.616;2023-03-01T04:15:36;1.8;;;1.7;;
27357;SDS011;14831;50.474;7.616;2023-03-01T04:20:35;1.8;;;1.7;;
27357;SDS011;14831;50.474;7.616;2023-03-01T04:25:36;1.8;;;1.7;;
27357;SDS011;14831;50.474;7.616;2023-03-01T04:30:36;1.7;;;1.6;;
27357;SDS011;14831;50.474;7.616;2023-03-01T04:35:36;1.7;;;1.6;;
27357;SDS011;14831;50.474;7.616;2023-03-01T04:40:36;1.7;;;1.6;;
27357;SDS011;14831;50.474;7.616;2023-03-01T04:45:35;1.7;;;1.6;;
27357;SDS011;14831;50.474;7.616;2023-03-01T04:50:35;1.7;;;1.6;;
27357;SDS011;14831;50.474;7.616;2023-03-01T04:55:35;1.7;;;1.6;;
27357;SDS011;14831;50.474;7.616;2023-03-01T05:00:35;1.8;;;1.7;;
27357;SDS011;14831;50.474;7.616;2023-03-01T05:05:37;1.8;;;1.7;;
27357;SDS011;14831;50.474;7.616;2023-03-01T05:10:36;1.8;;;1.7;;
27357;SDS011;14831;50.474;7.616;2023-03-01T05:15:35;1.8;;;1.7;;
27357;SDS011;14831;50.474;7.616;2023-03-01T05:20:35;1.8;;;1.7;;
27357;SDS011;14831;50.474;7.616;2023-03-01T05:25:35;1.8;;;1.7;;
27357;SDS011;14831;50.474;7.616;2023-03-01T05:30:35;2.1;;;2.0;;
27357;SDS011;14831;50.474;7.616;2023-03-01T05:35:36;2.1;;;2.0;;
27357;SDS011;14831;50.474;7.616;2023-03-01T05:40:35;2.1;;;2.0;;
27357;SDS011;14831;50.474;7.616;2023-03-01T05:45:36;2.1;;;2.0;;
27357;SDS011;14831;50.474;7.616;2023-03-01T05:50:38;2.1;;;2.0;;
27357;SDS011;14831;50.474;7.616;2023-03-01T05:55:36;2.1;;;2.0;;
27357;SDS011;14831;50.474;7.616;2023-03-01T06:01:40;1.9;;;1.8;;
27357;SDS011;14831;50.474;7.616;2023-03-01T06:05:35;1.9;;;1.8;;
27357;SDS011;14831;50.474;7.616;2023-03-01T06:10:35;1.9;;;1.8;;
27357;SDS011;14831;50.474;7.616;2023-03-01T06:15:35;1.9;;;1.8;;
27357;SDS011;14831;50.474;7.616;2023-03-01T06:20:35;1.9;;;1.8;;
27357;SDS011;14831;50.474;7.616;2023-03-01T06:25:35;1.9;;;1.8;;
27357;SDS011;14831;50.474;7.616;2023-03-01T06:30:35;2.2;;;2.0;;
27357;SDS011;14831;50.474;7.616;2023-03-01T06:35:35;2.2;;;2.0;;
27357;SDS011;14831;50.474;7.616;2023-03-01T06:40:35;2.2;;;2.0;;
27357;SDS011;14831;50.474;7.616;2023-03-01T06:45:36;2.2;;;2.0;;
27357;SDS011;14831;50.474;7.616;2023-03-01T06:50:35;2.2;;;2.0;;
27357;SDS011;14831;50.474;7.616;2023-03-01T06:55:35;2.2;;;2.0;;
27357;SDS011;14831;50.474;7.616;2023-03-01T07:00:35;2.2;;;2.0;;
27357;SDS011;14831;50.474;7.616;2023-03-01T07:05:35;2.2;;;2.0;;
27357;SDS011;14831;50.474;7.616;2023-03-01T07:10:35;2.2;;;2.0;;
27357;SDS011;14831;50.474;7.616;2023-03-01T07:15:35;2.2;;;2.0;;
27357;SDS011;14831;50.474;7.616;2023-03-01T07:20:35;2.2;;;2.0;;
27357;SDS011;14831;50.474;7.616;2023-03-01T07:25:35;2.2;;;2.0;;
27357;SDS011;14831;50.474;7.616;2023-03-01T07:30:35;2.5;;;2.0;;
27357;SDS011;14831;50.474;7.616;2023-03-01T07:35:35;2.5;;;2.0;;
27357;SDS011;14831;50.474;7.616;2023-03-01T07:40:35;2.5;;;2.0;;
27357;SDS011;14831;50.474;7.616;2023-03-01T07:45:35;2.5;;;2.0;;
27357;SDS011;14831;50.474;7.616;2023-03-01T07:50:35;2.5;;;2.0;;
27357;SDS011;14831;50.474;7.616;2023-03-01T07:55:35;2.5;;;2.0;;
27357;SDS011;14831;50.474;7.616;2023-03-01T08:00:35;3.0;;;2.7;;
27357;SDS011;14831;50.474;7.616;2023-03-01T08:05:35;3.0;;;2.7;;
27357;SDS011;14831;50.474;7.616;2023-03-01T08:10:36;3.0;;;2.7;;
27357;SDS011;14831;50.474;7.616;2023-03-01T08:15:35;3.0;;;2.7;;
27357;SDS011;14831;50.474;7.616;2023-03-01T08:20:35;3.0;;;2.7;;
27357;SDS011;14831;50.474;7.616;2023-03-01T08:25:35;3.0;;;2.7;;
27357;SDS011;14831;50.474;7.616;2023-03-01T08:30:35;3.6;;;3.1;;
27357;SDS011;14831;50.474;7.616;2023-03-01T08:35:35;3.6;;;3.1;;
27357;SDS011;14831;50.474;7.616;2023-03-01T08:40:35;3.6;;;3.1;;
27357;SDS011;14831;50.474;7.616;2023-03-01T08:45:35;3.6;;;3.1;;
27357;SDS011;14831;50.474;7.616;2023-03-01T08:50:35;3.6;;;3.1;;
27357;SDS011;14831;50.474;7.616;2023-03-01T08:55:35;3.6;;;3.1;;
27357;SDS011;14831;50.474;7.616;2023-03-01T09:00:35;3.4;;;3.1;;
27357;SDS011;14831;50.474;7.616;2023-03-01T09:05:35;3.4;;;3.1;;
27357;SDS011;14831;50.474;7.616;2023-03-01T09:11:39;3.4;;;3.1;;
27357;SDS011;14831;50.474;7.616;2023-03-01T09:15:36;3.4;;;3.1;;
27357;SDS011;14831;50.474;7.616;2023-03-01T09:20:35;3.4;;;3.1;;
27357;SDS011;14831;50.474;7.616;2023-03-01T09:25:35;3.4;;;3.1;;
27357;SDS011;14831;50.474;7.616;2023-03-01T09:30:35;3.5;;;3.0;;
27357;SDS011;14831;50.474;7.616;2023-03-01T09:35:35;3.5;;;3.0;;
27357;SDS011;14831;50.474;7.616;2023-03-01T09:40:35;3.5;;;3.0;;
27357;SDS011;14831;50.474;7.616;2023-03-01T09:45:39;3.5;;;3.0;;
27357;SDS011;14831;50.474;7.616;2023-03-01T09:50:39;3.5;;;3.0;;
27357;SDS011;14831;50.474;7.616;2023-03-01T09:55:40;3.5;;;3.0;;
27357;SDS011;14831;50.474;7.616;2023-03-01T10:00:41;3.1;;;2.8;;
27357;SDS011;14831;50.474;7.616;2023-03-01T10:05:43;3.1;;;2.8;;
27357;SDS011;14831;50.474;7.616;2023-03-01T10:10:38;3.1;;;2.8;;
27357;SDS011;14831;50.474;7.616;2023-03-01T10:15:44;3.1;;;2.8;;
27357;SDS011;14831;50.474;7.616;2023-03-01T10:20:43;3.1;;;2.8;;
27357;SDS011;14831;50.474;7.616;2023-03-01T10:25:47;3.1;;;2.8;;
27357;SDS011;14831;50.474;7.616;2023-03-01T10:30:37;2.8;;;2.6;;
27357;SDS011;14831;50.474;7.616;2023-03-01T10:35:35;2.8;;;2.6;;
27357;SDS011;14831;50.474;7.616;2023-03-01T10:40:49;2.8;;;2.6;;
27357;SDS011;14831;50.474;7.616;2023-03-01T10:45:38;2.8;;;2.6;;
27357;SDS011;14831;50.474;7.616;2023-03-01T10:50:35;2.8;;;2.6;;
27357;SDS011;14831;50.474;7.616;2023-03-01T10:55:37;2.8;;;2.6;;
27357;SDS011;14831;50.474;7.616;2023-03-01T11:00:46;3.7;;;3.3;;
27357;SDS011;14831;50.474;7.616;2023-03-01T11:05:35;3.7;;;3.3;;
27357;SDS011;14831;50.474;7.616;2023-03-01T11:10:36;3.7;;;3.3;;
27357;SDS011;14831;50.474;7.616;2023-03-01T11:15:35;3.7;;;3.3;;
27357;SDS011;14831;50.474;7.616;2023-03-01T11:20:36;3.7;;;3.3;;
27357;SDS011;14831;50.474;7.616;2023-03-01T11:25:37;3.7;;;3.3;;
27357;SDS011;14831;50.474;7.616;2023-03-01T11:30:39;3.5;;;3.2;;
27357;SDS011;14831;50.474;7.616;2023-03-01T11:35:37;3.5;;;3.2;;
27357;SDS011;14831;50.474;7.616;2023-03-01T11:40:39;3.5;;;3.2;;
27357;SDS011;14831;50.474;7.616;2023-03-01T11:45:45;3.5;;;3.2;;
27357;SDS011;14831;50.474;7.616;2023-03-01T11:50:40;3.5;;;3.2;;
27357;SDS011;14831;50.474;7.616;2023-03-01T11:55:48;3.5;;;3.2;;
27357;SDS011;14831;50.474;7.616;2023-03-01T12:00:55;3.8;;;2.9;;
27357;SDS011;14831;50.474;7.616;2023-03-01T13:15:36;3.2;;;2.9;;
27357;SDS011;14831;50.474;7.616;2023-03-01T13:20:47;3.2;;;2.9;;
27357;SDS011;14831;50.474;7.616;2023-03-01T13:26:01;3.2;;;2.9;;
27357;SDS011;14831;50.474;7.616;2023-03-01T13:30:41;3.2;;;2.9;;
27357;SDS011;14831;50.474;7.616;2023-03-01T13:35:42;3.2;;;2.9;;
27357;SDS011;14831;50.474;7.616;2023-03-01T13:41:07;3.2;;;2.9;;
27357;SDS011;14831;50.474;7.616;2023-03-01T13:45:38;3.2;;;2.9;;
27357;SDS011;14831;50.474;7.616;2023-03-01T13:50:42;3.2;;;2.9;;
27357;SDS011;14831;50.474;7.616;2023-03-01T13:55:41;3.2;;;2.9;;
27357;SDS011;14831;50.474;7.616;2023-03-01T14:00:38;3.2;;;2.9;;
27357;SDS011;14831;50.474;7.616;2023-03-01T14:05:36;4.2;;;2.5;;
27357;SDS011;14831;50.474;7.616;2023-03-01T14:10:44;4.2;;;2.5;;
27357;SDS011;14831;50.474;7.616;2023-03-01T14:15:39;4.2;;;2.5;;
27357;SDS011;14831;50.474;7.616;2023-03-01T14:20:40;4.2;;;2.5;;
27357;SDS011;14831;50.474;7.616;2023-03-01T14:25:36;4.2;;;2.5;;
27357;SDS011;14831;50.474;7.616;2023-03-01T14:30:38;4.2;;;2.5;;
27357;SDS011;14831;50.474;7.616;2023-03-01T14:40:36;2.4;;;2.1;;
27357;SDS011;14831;50.474;7.616;2023-03-01T14:45:35;2.4;;;2.1;;
27357;SDS011;14831;50.474;7.616;2023-03-01T14:50:40;2.4;;;2.1;;
27357;SDS011;14831;50.474;7.616;2023-03-01T14:55:37;2.4;;;2.1;;
27357;SDS011;14831;50.474;7.616;2023-03-01T15:00:36;2.4;;;2.1;;
27357;SDS011;14831;50.474;7.616;2023-03-01T15:05:35;3.0;;;2.3;;
27357;SDS011;14831;50.474;7.616;2023-03-01T15:10:36;3.0;;;2.3;;
27357;SDS011;14831;50.474;7.616;2023-03-01T15:15:38;3.0;;;2.3;;
27357;SDS011;14831;50.474;7.616;2023-03-01T15:20:35;3.0;;;2.3;;
27357;SDS011;14831;50.474;7.616;2023-03-01T15:25:35;3.0;;;2.3;;
27357;SDS011;14831;50.474;7.616;2023-03-01T15:30:36;3.0;;;2.3;;
27357;SDS011;14831;50.474;7.616;2023-03-01T15:35:41;2.2;;;1.9;;
27357;SDS011;14831;50.474;7.616;2023-03-01T15:40:35;2.2;;;1.9;;
27357;SDS011;14831;50.474;7.616;2023-03-01T15:45:35;2.2;;;1.9;;
27357;SDS011;14831;50.474;7.616;2023-03-01T15:50:36;2.2;;;1.9;;
27357;SDS011;14831;50.474;7.616;2023-03-01T15:55:35;2.2;;;1.9;;
27357;SDS011;14831;50.474;7.616;2023-03-01T16:00:35;2.2;;;1.9;;
27357;SDS011;14831;50.474;7.616;2023-03-01T16:05:35;2.4;;;2.0;;
27357;SDS011;14831;50.474;7.616;2023-03-01T16:10:35;2.4;;;2.0;;
27357;SDS011;14831;50.474;7.616;2023-03-01T16:15:35;2.4;;;2.0;;
27357;SDS011;14831;50.474;7.616;2023-03-01T16:20:36;2.4;;;2.0;;
27357;SDS011;14831;50.474;7.616;2023-03-01T16:25:36;2.4;;;2.0;;
27357;SDS011;14831;50.474;7.616;2023-03-01T16:30:36;2.4;;;2.0;;
27357;SDS011;14831;50.474;7.616;2023-03-01T16:35:39;1.8;;;1.7;;
27357;SDS011;14831;50.474;7.616;2023-03-01T16:40:35;1.8;;;1.7;;
27357;SDS011;14831;50.474;7.616;2023-03-01T16:45:35;1.8;;;1.7;;
27357;SDS011;14831;50.474;7.616;2023-03-01T16:50:35;1.8;;;1.7;;
27357;SDS011;14831;50.474;7.616;2023-03-01T16:55:35;1.8;;;1.7;;
27357;SDS011;14831;50.474;7.616;2023-03-01T17:00:35;1.8;;;1.7;;
27357;SDS011;14831;50.474;7.616;2023-03-01T17:05:35;1.9;;;1.8;;
27357;SDS011;14831;50.474;7.616;2023-03-01T17:10:35;1.9;;;1.8;;
27357;SDS011;14831;50.474;7.616;2023-03-01T17:15:38;1.9;;;1.8;;
27357;SDS011;14831;50.474;7.616;2023-03-01T17:20:35;1.9;;;1.8;;
27357;SDS011;14831;50.474;7.616;2023-03-01T17:25:35;1.9;;;1.8;;
27357;SDS011;14831;50.474;7.616;2023-03-01T17:30:35;1.9;;;1.8;;
27357;SDS011;14831;50.474;7.616;2023-03-01T17:35:35;2.5;;;1.7;;
27357;SDS011;14831;50.474;7.616;2023-03-01T17:40:36;2.5;;;1.7;;
27357;SDS011;14831;50.474;7.616;2023-03-01T17:45:36;2.5;;;1.7;;
27357;SDS011;14831;50.474;7.616;2023-03-01T17:50:36;2.5;;;1.7;;
27357;SDS011;14831;50.474;7.616;2023-03-01T17:55:35;2.5;;;1.7;;
27357;SDS011;14831;50.474;7.616;2023-03-01T18:00:36;2.5;;;1.7;;
27357;SDS011;14831;50.474;7.616;2023-03-01T18:05:36;2.9;;;1.7;;
27357;SDS011;14831;50.474;7.616;2023-03-01T18:10:35;2.9;;;1.7;;
27357;SDS011;14831;50.474;7.616;2023-03-01T18:15:35;2.9;;;1.7;;
27357;SDS011;14831;50.474;7.616;2023-03-01T18:20:35;2.9;;;1.7;;
27357;SDS011;14831;50.474;7.616;2023-03-01T18:25:38;2.9;;;1.7;;
27357;SDS011;14831;50.474;7.616;2023-03-01T18:30:35;2.9;;;1.7;;
27357;SDS011;14831;50.474;7.616;2023-03-01T18:35:35;1.9;;;1.8;;
27357;SDS011;14831;50.474;7.616;2023-03-01T18:40:35;1.9;;;1.8;;
27357;SDS011;14831;50.474;7.616;2023-03-01T18:45:35;1.9;;;1.8;;
27357;SDS011;14831;50.474;7.616;2023-03-01T18:50:35;1.9;;;1.8;;
27357;SDS011;14831;50.474;7.616;2023-03-01T18:55:35;1.9;;;1.8;;
27357;SDS011;14831;50.474;7.616;2023-03-01T19:00:35;1.9;;;1.8;;
27357;SDS011;14831;50.474;7.616;2023-03-01T19:05:35;2.1;;;1.9;;
27357;SDS011;14831;50.474;7.616;2023-03-01T19:10:37;2.1;;;1.9;;
27357;SDS011;14831;50.474;7.616;2023-03-01T19:15:35;2.1;;;1.9;;
27357;SDS011;14831;50.474;7.616;2023-03-01T19:20:35;2.1;;;1.9;;
27357;SDS011;14831;50.474;7.616;2023-03-01T19:25:35;2.1;;;1.9;;
27357;SDS011;14831;50.474;7.616;2023-03-01T19:30:36;2.1;;;1.9;;
27357;SDS011;14831;50.474;7.616;2023-03-01T19:35:35;2.2;;;2.0;;
27357;SDS011;14831;50.474;7.616;2023-03-01T19:40:35;2.2;;;2.0;;
27357;SDS011;14831;50.474;7.616;2023-03-01T19:45:35;2.2;;;2.0;;
27357;SDS011;14831;50.474;7.616;2023-03-01T19:50:35;2.2;;;2.0;;
27357;SDS011;14831;50.474;7.616;2023-03-01T19:55:35;2.2;;;2.0;;
27357;SDS011;14831;50.474;7.616;2023-03-01T20:00:36;2.2;;;2.0;;
27357;SDS011;14831;50.474;7.616;2023-03-01T20:05:36;2.0;;;1.8;;
27357;SDS011;14831;50.474;7.616;2023-03-01T20:10:35;2.0;;;1.8;;
27357;SDS011;14831;50.474;7.616;2023-03-01T20:15:35;2.0;;;1.8;;
27357;SDS011;14831;50.474;7.616;2023-03-01T20:20:35;2.0;;;1.8;;
27357;SDS011;14831;50.474;7.616;2023-03-01T20:25:35;2.0;;;1.8;;
27357;SDS011;14831;50.474;7.616;2023-03-01T20:30:36;2.0;;;1.8;;
27357;SDS011;14831;50.474;7.616;2023-03-01T20:35:35;2.2;;;2.0;;
27357;SDS011;14831;50.474;7.616;2023-03-01T20:40:36;2.2;;;2.0;;
27357;SDS011;14831;50.474;7.616;2023-03-01T20:45:36;2.2;;;2.0;;
27357;SDS011;14831;50.474;7.616;2023-03-01T20:50:39;2.2;;;2.0;;
27357;SDS011;14831;50.474;7.616;2023-03-01T20:55:35;2.2;;;2.0;;
27357;SDS011;14831;50.474;7.616;2023-03-01T21:00:35;2.2;;;2.0;;
27357;SDS011;14831;50.474;7.616;2023-03-01T21:05:35;2.3;;;2.0;;
27357;SDS011;14831;50.474;7.616;2023-03-01T21:10:35;2.3;;;2.0;;
27357;SDS011;14831;50.474;7.616;2023-03-01T21:15:35;2.3;;;2.0;;
27357;SDS011;14831;50.474;7.616;2023-03-01T21:20:35;2.3;;;2.0;;
27357;SDS011;14831;50.474;7.616;2023-03-01T21:25:35;2.3;;;2.0;;
27357;SDS011;14831;50.474;7.616;2023-03-01T21:30:35;2.3;;;2.0;;
27357;SDS011;14831;50.474;7.616;2023-03-01T21:35:35;2.2;;;1.8;;
27357;SDS011;14831;50.474;7.616;2023-03-01T21:40:35;2.2;;;1.8;;
27357;SDS011;14831;50.474;7.616;2023-03-01T21:45:35;2.2;;;1.8;;
27357;SDS011;14831;50.474;7.616;2023-03-01T21:50:35;2.2;;;1.8;;
27357;SDS011;14831;50.474;7.616;2023-03-01T21:55:35;2.2;;;1.8;;
27357;SDS011;14831;50.474;7.616;2023-03-01T22:00:35;2.2;;;1.8;;
27357;SDS011;14831;50.474;7.616;2023-03-01T22:05:35;3.3;;;2.0;;
27357;SDS011;14831;50.474;7.616;2023-03-01T22:10:38;3.3;;;2.0;;
27357;SDS011;14831;50.474;7.616;2023-03-01T22:15:38;3.3;;;2.0;;
27357;SDS011;14831;50.474;7.616;2023-03-01T22:20:35;3.3;;;2.0;;
27357;SDS011;14831;50.474;7.616;2023-03-01T22:25:40;3.3;;;2.0;;
27357;SDS011;14831;50.474;7.616;2023-03-01T22:30:35;3.3;;;2.0;;
27357;SDS011;14831;50.474;7.616;2023-03-01T22:35:35;2.3;;;2.1;;
27357;SDS011;14831;50.474;7.616;2023-03-01T22:40:35;2.3;;;2.1;;
27357;SDS011;14831;50.474;7.616;2023-03-01T22:45:35;2.3;;;2.1;;
27357;SDS011;14831;50.474;7.616;2023-03-01T22:50:35;2.3;;;2.1;;
27357;SDS011;14831;50.474;7.616;2023-03-01T22:55:35;2.3;;;2.1;;
27357;SDS011;14831;50.474;7.616;2023-03-01T23:00:35;2.3;;;2.1;;
27357;SDS011;14831;50.474;7.616;2023-03-01T23:05:35;3.3;;;2.3;;
27357;SDS011;14831;50.474;7.616;2023-03-01T23:10:39;3.3;;;2.3;;
27357;SDS011;14831;50.474;7.616;2023-03-01T23:15:35;3.3;;;2.3;;
27357;SDS011;14831;50.474;7.616;2023-03-01T23:20:35;3.3;;;2.3;;
27357;SDS011;14831;50.474;7.616;2023-03-01T23:25:35;3.3;;;2.3;;
27357;SDS011;14831;50.474;7.616;2023-03-01T23:30:35;3.3;;;2.3;;
27357;SDS011;14831;50.474;7.616;2023-03-01T23:35:37;2.8;;;2.5;;
27357;SDS011;14831;50.474;7.616;2023-03-01T23:40:37;2.8;;;2.5;;
27357;SDS011;14831;50.474;7.616;2023-03-01T23:45:36;2.8;;;2.5;;
27357;SDS011;14831;50.474;7.616;2023-03-01T23:50:35;2.8;;;2.5;;
27357;SDS011;14831;50.474;7.616;2023-03-01T23:55:37;2.8;;;2.5;;
